Airport Name : Cameri

Other Name : Cameri

ICAO : LIMN

IATA :

FAA :

Latitude : 45.529592

Longitude : 8.669225

Country : Italy

Local Date and Time : 8/22/2018 7:46:00 AM

 

TAF (Terminal Aerodrome Forecast)

TAF LIMN 220500Z 2206/2215 VRB05KT CAVOK

 

METAR (METeorological Aerodrome Report)

LIMN 220455Z 34006KT CAVOK 20/19 Q1017 RMK SKC VIS MIN 9999 BLK BLU